createdAt,value
2018-11-20T06:52:10.465Z,22.52
2018-11-20T06:54:36.839Z,20.03
2018-11-20T06:57:03.169Z,19.77
2018-11-20T06:59:29.501Z,19.74
2018-11-20T07:01:55.869Z,19.77
2018-11-20T07:04:22.197Z,19.84
2018-11-20T07:06:48.742Z,19.89
2018-11-20T07:09:15.108Z,20.16
2018-11-20T07:11:41.472Z,20.21
2018-11-20T07:14:07.796Z,20.40
2018-11-20T07:16:34.218Z,20.49
2018-11-20T07:19:00.507Z,20.66
2018-11-20T07:21:26.910Z,20.77
2018-11-20T07:23:53.246Z,20.79
2018-11-20T07:26:19.635Z,20.86
2018-11-20T07:28:45.977Z,21.04
2018-11-20T07:31:12.480Z,21.25
2018-11-20T07:33:38.728Z,21.25
2018-11-20T07:36:05.127Z,21.27
2018-11-20T07:38:31.541Z,21.28
2018-11-20T07:40:57.936Z,21.51
2018-11-20T07:43:24.458Z,21.54
2018-11-20T07:45:50.719Z,21.52
2018-11-20T07:48:17.139Z,21.67
2018-11-20T07:50:43.482Z,21.60
2018-11-20T07:53:09.812Z,21.61
2018-11-20T07:55:36.255Z,21.74
2018-11-20T07:58:02.505Z,21.82
2018-11-20T08:00:28.858Z,21.78
2018-11-20T08:02:55.343Z,21.84
2018-11-20T08:05:21.657Z,21.97
2018-11-20T08:07:48.049Z,21.85
2018-11-20T08:10:14.420Z,22.06
2018-11-20T08:12:40.743Z,21.98
2018-11-20T08:15:07.136Z,21.92
2018-11-20T08:17:36.407Z,22.08
2018-11-20T08:20:02.792Z,22.04
2018-11-20T08:22:29.394Z,22.01
2018-11-20T08:24:55.543Z,22.00
2018-11-20T08:27:21.893Z,22.12
2018-11-20T08:29:48.250Z,22.05
2018-11-20T08:32:14.618Z,22.10
2018-11-20T08:34:40.952Z,22.14
2018-11-20T08:37:07.348Z,22.18
2018-11-20T08:39:33.824Z,22.40
2018-11-20T08:42:00.335Z,22.45
2018-11-20T08:44:26.678Z,22.39
2018-11-20T08:46:53.191Z,22.45
2018-11-20T08:49:19.633Z,22.46
2018-11-20T08:51:45.963Z,22.41
2018-11-20T08:54:12.423Z,22.34
2018-11-20T08:56:38.759Z,22.40
2018-11-20T08:59:05.119Z,22.50
2018-11-20T09:01:31.516Z,22.46
2018-11-20T09:03:57.841Z,22.46
2018-11-20T09:06:27.761Z,22.63
2018-11-20T09:08:54.196Z,22.65
2018-11-20T09:11:20.545Z,22.66
2018-11-20T09:13:46.926Z,22.62
2018-11-20T09:16:13.277Z,22.64
2018-11-20T09:18:39.778Z,22.67
2018-11-20T09:21:06.630Z,22.69
2018-11-20T09:23:33.059Z,22.67
2018-11-20T09:25:59.377Z,22.67
2018-11-20T09:28:25.763Z,22.55
2018-11-20T09:30:52.206Z,22.64
2018-11-20T09:33:18.573Z,22.65
2018-11-20T09:35:45.112Z,22.69
2018-11-20T09:38:12.358Z,22.65
2018-11-20T09:40:38.701Z,22.67
2018-11-20T09:43:05.073Z,22.61
2018-11-20T09:45:31.567Z,22.58
2018-11-20T09:47:57.940Z,22.57
2018-11-20T09:50:24.321Z,22.65
2018-11-20T09:52:50.762Z,22.63
2018-11-20T09:55:17.082Z,22.73
2018-11-20T09:57:43.412Z,22.67
2018-11-20T10:00:09.776Z,22.54
2018-11-20T10:02:36.109Z,22.70
2018-11-20T10:05:02.442Z,22.76
2018-11-20T10:07:28.817Z,22.72
2018-11-20T10:09:55.240Z,22.82
2018-11-20T10:12:21.646Z,22.67
2018-11-20T10:14:48.092Z,22.65
2018-11-20T10:17:14.333Z,22.74
2018-11-20T10:19:40.685Z,22.74
2018-11-20T10:22:07.092Z,22.65
2018-11-20T10:24:33.390Z,22.75
2018-11-20T10:26:59.710Z,22.81
2018-11-20T10:29:26.149Z,22.72
2018-11-20T10:31:52.521Z,22.70
2018-11-20T10:34:18.927Z,22.66
2018-11-20T10:36:45.252Z,22.73
2018-11-20T10:39:11.614Z,22.74
2018-11-20T10:41:38.083Z,22.75
2018-11-20T10:44:04.460Z,22.74
2018-11-20T10:46:30.891Z,22.75
2018-11-20T10:48:57.164Z,22.88
2018-11-20T10:51:23.518Z,22.85
2018-11-20T10:53:49.912Z,22.80
2018-11-20T10:56:16.279Z,22.85
2018-11-20T10:58:42.691Z,22.84
2018-11-20T11:01:10.029Z,22.85
2018-11-20T11:03:36.414Z,22.82
2018-11-20T11:06:02.726Z,22.91
2018-11-20T11:08:29.072Z,22.92
2018-11-20T11:10:55.400Z,22.94
2018-11-20T11:13:21.764Z,22.92
2018-11-20T11:15:48.099Z,22.94
2018-11-20T11:18:14.459Z,23.04
2018-11-20T11:20:40.964Z,23.07
2018-11-20T11:23:07.183Z,23.03
2018-11-20T11:25:33.520Z,23.04
2018-11-20T11:27:59.863Z,22.84
2018-11-20T11:30:27.286Z,22.97
2018-11-20T11:32:53.778Z,22.92
2018-11-20T11:35:20.174Z,22.93
2018-11-20T11:37:46.554Z,22.96
2018-11-20T11:40:12.881Z,22.94
2018-11-20T11:42:39.248Z,22.98
2018-11-20T11:45:05.647Z,23.05
2018-11-20T11:47:32.028Z,23.08
2018-11-20T11:49:58.445Z,23.08
2018-11-20T11:52:25.414Z,23.13
2018-11-20T11:54:51.303Z,23.12
2018-11-20T11:57:17.592Z,23.08
2018-11-20T11:59:43.955Z,23.13
2018-11-20T12:04:35.740Z,23.25
2018-11-20T12:07:03.097Z,23.27
2018-11-20T12:09:29.437Z,23.21
2018-11-20T12:11:56.844Z,23.22
2018-11-20T12:14:23.166Z,23.12
2018-11-20T12:16:49.669Z,23.19
2018-11-20T12:19:16.082Z,23.21
2018-11-20T12:21:42.427Z,23.16
2018-11-20T12:24:08.769Z,23.22
2018-11-20T12:26:35.192Z,23.28
2018-11-20T12:29:01.543Z,23.30
2018-11-20T12:31:28.776Z,23.19
2018-11-20T12:33:54.393Z,23.23
2018-11-20T12:36:20.826Z,23.19
2018-11-20T12:38:47.188Z,23.24
2018-11-20T12:41:13.598Z,23.06
2018-11-20T12:43:40.052Z,23.20
2018-11-20T12:46:06.421Z,23.16
2018-11-20T12:48:32.781Z,23.38
2018-11-20T12:50:59.111Z,23.30
2018-11-20T12:53:25.481Z,23.34
2018-11-20T12:55:51.849Z,23.47
2018-11-20T12:58:18.590Z,23.45
2018-11-20T13:00:44.961Z,23.38
2018-11-20T13:03:11.293Z,23.45
2018-11-20T13:05:37.643Z,23.42
2018-11-20T13:08:04.148Z,23.42
2018-11-20T13:10:30.500Z,23.27
2018-11-20T13:12:58.564Z,23.40
2018-11-20T13:15:23.348Z,23.38
2018-11-20T13:17:49.708Z,23.43
2018-11-20T13:20:16.058Z,23.40
2018-11-20T13:22:42.585Z,23.42
2018-11-20T13:25:09.562Z,23.35
2018-11-20T13:27:35.249Z,23.31
2018-11-20T13:30:01.642Z,23.39
2018-11-20T13:32:27.981Z,23.41
2018-11-20T13:34:54.326Z,23.33
2018-11-20T13:37:20.688Z,23.45
2018-11-20T13:39:47.032Z,23.40
2018-11-20T13:42:13.373Z,23.49
2018-11-20T13:44:40.953Z,23.38
2018-11-20T13:47:08.352Z,23.46
2018-11-20T13:49:34.687Z,23.37
2018-11-20T13:52:01.034Z,23.43
2018-11-20T13:54:27.388Z,23.55
2018-11-20T13:56:53.756Z,23.55
2018-11-20T13:59:20.090Z,23.55
2018-11-20T14:01:46.425Z,23.46
2018-11-20T14:04:12.974Z,23.55
2018-11-20T14:06:39.257Z,23.64
2018-11-20T14:09:05.963Z,23.56
2018-11-20T14:11:36.453Z,23.56
2018-11-20T14:13:58.760Z,23.43
2018-11-20T14:16:25.135Z,23.52
2018-11-20T14:18:51.523Z,23.52
2018-11-20T14:21:17.860Z,23.48
2018-11-20T14:23:44.263Z,23.53
2018-11-20T14:26:10.590Z,23.50
2018-11-20T14:28:36.973Z,23.62
2018-11-20T14:31:03.462Z,23.54
2018-11-20T14:33:29.899Z,23.55
2018-11-20T14:35:56.281Z,23.59
2018-11-20T14:38:22.662Z,23.57
2018-11-20T14:40:48.981Z,23.50
2018-11-20T14:43:15.400Z,23.53
2018-11-20T14:45:41.847Z,23.44
2018-11-20T14:48:08.183Z,23.48
2018-11-20T14:50:34.577Z,23.51
2018-11-20T14:53:00.978Z,23.44
2018-11-20T14:55:27.355Z,23.48
2018-11-20T14:57:54.794Z,23.48
2018-11-20T15:00:21.150Z,23.46
2018-11-20T15:02:47.540Z,23.54
2018-11-20T15:05:13.954Z,23.55
2018-11-20T15:07:40.293Z,23.51
2018-11-20T15:10:06.614Z,23.47
2018-11-20T15:12:33.005Z,23.55
2018-11-20T15:14:59.426Z,23.52
2018-11-20T15:17:25.767Z,23.44
2018-11-20T15:19:52.108Z,23.46
2018-11-20T15:22:18.490Z,23.52
2018-11-20T15:24:44.851Z,23.41
2018-11-20T15:27:11.638Z,23.41
2018-11-20T15:29:37.966Z,23.39
2018-11-20T15:32:04.332Z,23.35
2018-11-20T15:34:30.662Z,23.35
2018-11-20T15:36:57.054Z,23.30
2018-11-20T15:39:23.381Z,23.24
2018-11-20T15:41:49.809Z,23.23
2018-11-20T15:44:17.211Z,23.20
2018-11-20T15:46:43.558Z,23.14
2018-11-20T15:49:10.320Z,23.07
2018-11-20T15:51:36.873Z,23.10
2018-11-20T15:54:03.323Z,22.96
2018-11-20T15:56:29.747Z,22.97
2018-11-20T15:58:56.107Z,22.88
2018-11-20T16:01:23.135Z,22.83
2018-11-20T16:03:48.919Z,22.74
2018-11-20T16:06:15.744Z,22.79
2018-11-20T16:08:42.152Z,22.67
2018-11-20T16:11:10.187Z,22.69
2018-11-20T16:13:34.878Z,22.58
2018-11-20T16:16:01.207Z,22.59
2018-11-20T16:18:27.587Z,22.53
2018-11-20T16:20:53.966Z,22.53
2018-11-20T16:23:20.315Z,22.47
2018-11-20T16:25:46.697Z,22.43
2018-11-20T16:28:13.110Z,22.41
2018-11-20T16:30:39.442Z,22.32
2018-11-20T16:33:05.866Z,22.30
2018-11-20T16:35:32.193Z,22.34
2018-11-20T16:37:58.569Z,22.30
2018-11-20T16:40:24.901Z,22.29
2018-11-20T16:42:51.307Z,22.26
2018-11-20T16:45:17.669Z,22.24
2018-11-20T16:47:43.970Z,22.19
2018-11-20T16:50:10.355Z,22.18
2018-11-20T16:52:36.742Z,22.09
2018-11-20T16:55:03.168Z,22.07
2018-11-20T16:57:29.545Z,21.95
2018-11-20T16:59:56.169Z,22.06
2018-11-20T17:02:22.329Z,21.98
2018-11-20T17:04:48.783Z,21.94
2018-11-20T17:07:15.113Z,21.92
2018-11-20T17:09:41.457Z,21.90
2018-11-20T17:12:07.843Z,21.79
2018-11-20T17:14:34.196Z,21.86
2018-11-20T17:17:00.680Z,21.84
2018-11-20T17:19:27.059Z,21.79
2018-11-20T17:21:53.521Z,21.80
2018-11-20T17:24:19.886Z,21.75
2018-11-20T17:26:46.216Z,21.66
2018-11-20T17:29:12.597Z,21.71
2018-11-20T17:31:38.996Z,21.64
2018-11-20T17:34:05.365Z,21.57
2018-11-20T17:36:31.698Z,21.60
2018-11-20T17:38:58.028Z,21.55
2018-11-20T17:41:24.351Z,21.58
2018-11-20T17:43:50.749Z,21.52
2018-11-20T17:46:17.133Z,21.45
2018-11-20T17:48:43.544Z,21.43
2018-11-20T17:51:09.897Z,21.40
2018-11-20T17:53:36.351Z,21.40
2018-11-20T17:56:02.876Z,21.33
2018-11-20T17:58:29.234Z,21.33
2018-11-20T18:00:55.606Z,21.30
2018-11-20T18:03:22.001Z,21.32
2018-11-20T18:05:48.403Z,21.19
2018-11-20T18:08:14.793Z,21.42
2018-11-20T18:10:41.124Z,21.52
2018-11-20T18:13:07.485Z,21.55
2018-11-20T18:15:33.829Z,21.54
2018-11-20T18:18:00.222Z,21.60
2018-11-20T18:20:26.556Z,21.65
2018-11-20T18:22:52.953Z,21.62
2018-11-20T18:25:19.322Z,21.66
2018-11-20T18:27:45.714Z,21.63
2018-11-20T18:30:12.053Z,21.64
2018-11-20T18:32:38.418Z,21.62
2018-11-20T18:35:04.810Z,21.65
2018-11-20T18:37:31.092Z,21.63
2018-11-20T18:39:57.438Z,21.68
2018-11-20T18:42:23.836Z,21.65
2018-11-20T18:44:50.188Z,21.66
2018-11-20T18:47:16.554Z,21.63
2018-11-20T18:49:42.960Z,21.65
2018-11-20T18:52:09.314Z,21.64
2018-11-20T18:54:35.639Z,21.69
2018-11-20T18:57:02.043Z,21.67
2018-11-20T18:59:28.374Z,21.63
2018-11-20T19:01:54.759Z,21.63
2018-11-20T19:04:21.101Z,21.63
2018-11-20T19:06:47.520Z,21.64
2018-11-20T19:09:13.894Z,21.60
2018-11-20T19:11:40.195Z,21.58
2018-11-20T19:14:06.583Z,21.63
2018-11-20T19:16:32.965Z,21.61
2018-11-20T19:18:59.316Z,21.59
2018-11-20T19:21:25.690Z,21.60
2018-11-20T19:23:52.015Z,21.61
2018-11-20T19:26:18.400Z,21.58
2018-11-20T19:28:44.743Z,21.52
2018-11-20T19:31:11.161Z,21.54
2018-11-20T19:33:37.517Z,21.54
2018-11-20T19:36:03.950Z,21.52
2018-11-20T19:38:30.276Z,21.53
2018-11-20T19:40:56.684Z,21.51
2018-11-20T19:43:23.019Z,21.49
2018-11-20T19:45:49.398Z,21.46
2018-11-20T19:48:15.789Z,21.44
2018-11-20T19:50:42.118Z,21.42
2018-11-20T19:53:08.510Z,21.37
2018-11-20T19:55:34.891Z,21.40
2018-11-20T19:58:01.211Z,21.24
2018-11-20T20:00:27.602Z,21.23
2018-11-20T20:02:53.985Z,21.21
2018-11-20T20:05:20.311Z,21.15
2018-11-20T20:07:46.643Z,21.22
2018-11-20T20:10:17.659Z,21.17
2018-11-20T20:12:39.320Z,21.11
2018-11-20T20:15:05.704Z,21.16
2018-11-20T20:17:32.027Z,21.17
2018-11-20T20:19:58.394Z,21.12
2018-11-20T20:22:24.742Z,21.16
2018-11-20T20:24:51.073Z,21.25
2018-11-20T20:27:17.439Z,21.11
2018-11-20T20:29:43.760Z,21.16
2018-11-20T20:32:10.166Z,21.05
2018-11-20T20:34:36.498Z,21.04
2018-11-20T20:37:02.826Z,21.09
2018-11-20T20:39:29.157Z,21.09
2018-11-20T20:41:55.546Z,20.91
2018-11-20T20:44:21.868Z,21.05
2018-11-20T20:46:48.242Z,20.98
2018-11-20T20:49:14.659Z,21.00
2018-11-20T20:51:41.094Z,21.05
2018-11-20T20:54:12.355Z,21.08
2018-11-20T20:56:33.802Z,20.94
2018-11-20T20:59:00.134Z,20.84
2018-11-20T21:01:26.525Z,20.82
2018-11-20T21:03:52.860Z,20.72
2018-11-20T21:06:19.239Z,20.75
2018-11-20T21:08:45.579Z,20.65
2018-11-20T21:11:11.907Z,20.60
2018-11-20T21:13:38.296Z,20.61
2018-11-20T21:16:04.637Z,20.56
2018-11-20T21:18:31.011Z,20.48
2018-11-20T21:20:57.445Z,20.50
2018-11-20T21:23:23.769Z,20.49
2018-11-20T21:25:50.091Z,20.46
2018-11-20T21:28:16.493Z,20.39
2018-11-20T21:30:43.356Z,20.36
2018-11-20T21:33:09.222Z,20.36
2018-11-20T21:35:35.550Z,20.30
2018-11-20T21:38:01.886Z,20.27
2018-11-20T21:40:28.251Z,20.37
2018-11-20T21:42:54.569Z,20.31
2018-11-20T21:45:20.980Z,20.23
2018-11-20T21:47:47.385Z,20.17
2018-11-20T21:50:13.735Z,20.17
2018-11-20T21:52:40.104Z,20.22
2018-11-20T21:55:06.433Z,20.22
2018-11-20T21:57:32.751Z,20.27
2018-11-20T21:59:59.082Z,20.29
2018-11-20T22:02:25.448Z,20.27
2018-11-20T22:04:51.779Z,20.21
2018-11-20T22:07:18.163Z,20.19
2018-11-20T22:09:44.493Z,20.15
2018-11-20T22:12:10.884Z,20.11
2018-11-20T22:14:37.257Z,20.07
2018-11-20T22:17:03.692Z,20.02
2018-11-20T22:19:30.018Z,19.95
2018-11-20T22:21:56.348Z,19.93
2018-11-20T22:24:22.680Z,19.93
2018-11-20T22:26:49.078Z,19.95
2018-11-20T22:29:15.447Z,19.93
2018-11-20T22:31:41.781Z,19.90
2018-11-20T22:34:08.104Z,19.87
2018-11-20T22:36:34.430Z,19.82
2018-11-20T22:39:00.831Z,19.79
2018-11-20T22:41:28.074Z,19.80
2018-11-20T22:43:53.530Z,19.81
2018-11-20T22:46:19.944Z,19.79
2018-11-20T22:48:46.240Z,19.77
2018-11-20T22:51:12.604Z,19.70
2018-11-20T22:53:39.004Z,19.69
2018-11-20T22:56:05.334Z,19.74
2018-11-20T22:58:31.722Z,19.77
2018-11-20T23:00:58.053Z,19.73
2018-11-20T23:03:24.478Z,19.74
2018-11-20T23:05:50.941Z,19.67
2018-11-20T23:08:17.357Z,19.70
2018-11-20T23:10:43.733Z,19.61
2018-11-20T23:13:10.130Z,19.60
2018-11-20T23:15:36.468Z,19.64
2018-11-20T23:18:02.799Z,19.64
2018-11-20T23:20:29.174Z,19.65
2018-11-20T23:22:55.498Z,19.60
2018-11-20T23:25:21.868Z,19.52
2018-11-20T23:27:48.218Z,19.55
2018-11-20T23:30:14.600Z,19.58
2018-11-20T23:32:40.962Z,19.57
2018-11-20T23:35:07.363Z,19.58
2018-11-20T23:37:33.685Z,19.50
2018-11-20T23:40:00.007Z,19.50
2018-11-20T23:42:26.394Z,19.47
2018-11-20T23:44:52.744Z,19.48
2018-11-20T23:47:19.058Z,19.54
2018-11-20T23:49:45.431Z,19.52
2018-11-20T23:52:11.752Z,19.46
2018-11-20T23:54:38.149Z,19.49
2018-11-20T23:57:04.474Z,19.44
2018-11-20T23:59:30.857Z,19.43
